createdAt,value
2019-02-02T00:01:15.647Z,45.10
2019-02-02T00:03:45.175Z,30.90
2019-02-02T00:06:15.899Z,29.87
2019-02-02T00:08:45.393Z,30.60
2019-02-02T00:11:16.356Z,31.07
2019-02-02T00:13:45.851Z,30.43
2019-02-02T00:16:16.780Z,32.47
2019-02-02T00:18:46.274Z,31.42
2019-02-02T00:21:16.994Z,29.77
2019-02-02T00:23:46.491Z,30.10
2019-02-02T00:26:16.004Z,30.05
2019-02-02T00:28:45.486Z,28.57
2019-02-02T00:31:16.212Z,27.82
2019-02-02T00:33:45.714Z,38.30
2019-02-02T00:36:15.292Z,30.95
2019-02-02T00:38:44.775Z,37.93
2019-02-02T00:41:14.385Z,31.10
2019-02-02T00:43:43.870Z,33.83
2019-02-02T00:46:13.394Z,31.20
2019-02-02T00:48:42.824Z,40.90
2019-02-02T00:51:12.339Z,30.92
2019-02-02T00:53:41.835Z,35.00
2019-02-02T00:56:11.403Z,31.65
2019-02-02T00:58:40.877Z,33.53
2019-02-02T01:01:10.460Z,29.42
2019-02-02T01:03:39.949Z,30.15
2019-02-02T01:06:10.782Z,32.48
2019-02-02T01:08:40.342Z,33.98
2019-02-02T01:11:09.875Z,31.02
2019-02-02T01:13:39.286Z,35.87
2019-02-02T01:16:09.176Z,30.62
2019-02-02T01:18:38.699Z,34.58
2019-02-02T01:21:08.186Z,38.90
2019-02-02T01:23:37.637Z,32.58
2019-02-02T01:26:08.332Z,36.10
2019-02-02T01:28:38.054Z,39.83
2019-02-02T01:31:07.540Z,32.73
2019-02-02T01:33:37.055Z,37.15
2019-02-02T01:36:06.552Z,33.00
2019-02-02T01:38:36.068Z,44.50
2019-02-02T01:41:05.554Z,45.85
2019-02-02T01:43:35.083Z,32.65
2019-02-02T01:46:05.872Z,37.50
2019-02-02T01:48:35.392Z,46.02
2019-02-02T01:51:04.874Z,32.05
2019-02-02T01:53:34.394Z,33.83
2019-02-02T01:56:03.882Z,46.98
2019-02-02T01:58:33.407Z,49.30
2019-02-02T02:01:03.254Z,48.45
2019-02-02T02:03:33.068Z,50.12
2019-02-02T02:06:02.557Z,51.83
2019-02-02T02:08:32.078Z,38.73
2019-02-02T02:11:02.898Z,53.73
2019-02-02T02:13:32.586Z,55.35
2019-02-02T02:16:02.101Z,54.50
2019-02-02T02:18:33.293Z,45.92
2019-02-02T02:21:04.088Z,51.10
2019-02-02T02:23:33.548Z,53.85
2019-02-02T02:26:03.042Z,55.63
2019-02-02T02:28:32.579Z,48.68
2019-02-02T02:31:03.368Z,43.65
2019-02-02T02:33:33.000Z,49.88
2019-02-02T02:36:02.487Z,52.48
2019-02-02T02:38:31.910Z,54.67
2019-02-02T02:41:01.511Z,50.65
2019-02-02T02:43:31.108Z,51.83
2019-02-02T02:46:00.725Z,44.25
2019-02-02T02:48:30.215Z,47.83
2019-02-02T02:50:59.732Z,55.15
2019-02-02T02:53:29.234Z,47.30
2019-02-02T02:56:00.259Z,47.98
2019-02-02T02:58:40.761Z,47.15
2019-02-02T03:01:00.809Z,41.25
2019-02-02T03:03:30.294Z,44.93
2019-02-02T03:05:59.827Z,42.70
2019-02-02T03:08:29.320Z,39.27
2019-02-02T03:11:00.039Z,38.63
2019-02-02T03:13:29.452Z,36.63
2019-02-02T03:16:00.283Z,52.13
2019-02-02T03:18:29.771Z,53.98
2019-02-02T03:20:59.293Z,54.20
2019-02-02T03:23:28.717Z,38.00
2019-02-02T03:25:59.427Z,39.83
2019-02-02T03:28:28.934Z,44.93
2019-02-02T03:30:58.460Z,46.80
2019-02-02T03:33:27.899Z,54.67
2019-02-02T03:35:57.347Z,40.05
2019-02-02T03:38:26.863Z,37.58
2019-02-02T03:40:57.718Z,45.23
2019-02-02T03:43:27.193Z,50.52
2019-02-02T03:45:56.703Z,43.75
2019-02-02T03:48:26.199Z,48.25
2019-02-02T03:50:55.800Z,41.35
2019-02-02T03:53:25.315Z,53.63
2019-02-02T03:55:54.822Z,53.58
2019-02-02T03:58:24.343Z,40.50
2019-02-02T04:00:55.224Z,54.33
2019-02-02T04:03:24.754Z,43.87
2019-02-02T04:05:55.431Z,49.18
2019-02-02T04:08:24.876Z,42.40
2019-02-02T04:10:55.672Z,54.45
2019-02-02T04:13:25.120Z,43.20
2019-02-02T04:15:55.913Z,52.53
2019-02-02T04:18:25.420Z,49.60
2019-02-02T04:20:54.846Z,43.40
2019-02-02T04:23:24.294Z,46.53
2019-02-02T04:25:53.779Z,45.98
2019-02-02T04:28:23.295Z,57.30
2019-02-02T04:30:52.780Z,46.70
2019-02-02T04:33:22.299Z,48.87
2019-02-02T04:35:51.787Z,47.93
2019-02-02T04:38:21.236Z,43.87
2019-02-02T04:40:52.019Z,41.73
2019-02-02T04:43:21.530Z,38.63
2019-02-02T04:45:52.458Z,36.00
2019-02-02T04:48:21.991Z,35.20
2019-02-02T04:50:52.692Z,34.35
2019-02-02T04:53:22.215Z,42.98
2019-02-02T04:55:51.715Z,33.55
2019-02-02T04:58:21.236Z,40.60
2019-02-02T05:00:50.655Z,36.25
2019-02-02T05:03:20.187Z,34.98
2019-02-02T05:05:50.876Z,34.25
2019-02-02T05:08:20.335Z,30.70
2019-02-02T05:10:51.026Z,36.90
2019-02-02T05:13:20.484Z,36.20
2019-02-02T05:15:49.923Z,35.85
2019-02-02T05:18:19.603Z,32.17
2019-02-02T05:20:50.299Z,32.85
2019-02-02T05:23:19.749Z,31.23
2019-02-02T05:25:49.279Z,30.32
2019-02-02T05:28:18.698Z,30.43
2019-02-02T05:30:48.223Z,37.05
2019-02-02T05:33:17.652Z,31.57
2019-02-02T05:35:48.380Z,30.30
2019-02-02T05:38:17.811Z,31.40
2019-02-02T05:40:47.335Z,30.80
2019-02-02T05:43:16.751Z,29.18
2019-02-02T05:45:47.611Z,31.10
2019-02-02T05:48:17.041Z,31.82
2019-02-02T05:50:46.555Z,35.23
2019-02-02T05:53:15.981Z,31.50
2019-02-02T05:55:46.713Z,33.40
2019-02-02T05:58:16.126Z,36.20
2019-02-02T06:00:50.235Z,43.60
2019-02-02T06:03:19.654Z,31.80
2019-02-02T06:05:50.371Z,48.85
2019-02-02T06:08:19.797Z,35.55
2019-02-02T06:10:50.515Z,40.15
2019-02-02T06:13:19.936Z,33.65
2019-02-02T06:15:50.668Z,53.65
2019-02-02T06:18:20.099Z,51.68
2019-02-02T06:20:50.819Z,56.80
2019-02-02T06:23:20.308Z,40.30
2019-02-02T06:25:51.050Z,54.65
2019-02-02T06:28:20.469Z,52.30
2019-02-02T06:30:51.206Z,59.75
2019-02-02T06:33:20.623Z,47.80
2019-02-02T06:35:51.444Z,44.45
2019-02-02T06:38:20.867Z,39.27
2019-02-02T06:40:51.584Z,42.88
2019-02-02T06:43:21.007Z,46.92
2019-02-02T06:45:50.538Z,43.58
2019-02-02T06:48:20.030Z,35.95
2019-02-02T06:50:50.859Z,36.08
2019-02-02T06:53:20.279Z,35.05
2019-02-02T06:55:49.777Z,40.63
2019-02-02T06:58:19.237Z,37.42
2019-02-02T07:00:49.931Z,39.27
2019-02-02T07:03:19.462Z,36.98
2019-02-02T07:05:50.147Z,47.25
2019-02-02T07:08:19.601Z,32.98
2019-02-02T07:10:50.308Z,33.63
2019-02-02T07:13:19.751Z,33.53
2019-02-02T07:15:50.450Z,37.10
2019-02-02T07:18:19.967Z,33.10
2019-02-02T07:20:50.859Z,31.25
2019-02-02T07:23:20.312Z,31.68
2019-02-02T07:25:51.035Z,47.58
2019-02-02T07:28:20.483Z,45.52
2019-02-02T07:30:51.182Z,42.90
2019-02-02T07:33:20.739Z,45.43
2019-02-02T07:35:50.248Z,31.30
2019-02-02T07:38:19.739Z,31.95
2019-02-02T07:40:50.435Z,33.53
2019-02-02T07:43:19.879Z,30.35
2019-02-02T07:45:50.567Z,34.00
2019-02-02T07:48:20.013Z,37.85
2019-02-02T07:50:50.001Z,31.68
2019-02-02T07:53:19.632Z,30.32
2019-02-02T07:55:50.519Z,37.03
2019-02-02T07:58:20.073Z,37.48
2019-02-02T08:00:49.565Z,40.43
2019-02-02T08:03:19.022Z,40.52
2019-02-02T08:05:48.508Z,42.70
2019-02-02T08:08:19.103Z,45.33
2019-02-02T08:10:48.514Z,36.77
2019-02-02T08:13:18.030Z,33.13
2019-02-02T08:15:48.849Z,38.23
2019-02-02T08:18:18.272Z,34.15
2019-02-02T08:20:49.084Z,35.40
2019-02-02T08:23:18.589Z,31.33
2019-02-02T08:25:49.358Z,32.00
2019-02-02T08:28:21.566Z,29.10
2019-02-02T08:30:52.682Z,29.92
2019-02-02T08:33:22.383Z,29.07
2019-02-02T08:35:51.972Z,33.02
2019-02-02T08:38:21.462Z,30.17
2019-02-02T08:40:52.791Z,30.10
2019-02-02T08:43:22.589Z,36.80
2019-02-02T08:45:52.479Z,32.98
2019-02-02T08:48:22.087Z,31.05
2019-02-02T08:50:52.892Z,30.25
2019-02-02T08:53:22.391Z,30.92
2019-02-02T08:55:53.165Z,29.48
2019-02-02T08:58:22.697Z,30.15
2019-02-02T09:01:03.714Z,31.60
2019-02-02T09:03:26.626Z,33.35
2019-02-02T09:05:56.300Z,31.90
2019-02-02T09:08:25.751Z,32.17
2019-02-02T09:10:55.275Z,32.38
2019-02-02T09:13:24.830Z,34.73
2019-02-02T09:15:54.352Z,31.33
2019-02-02T09:18:25.310Z,35.90
2019-02-02T09:20:54.831Z,30.55
2019-02-02T09:23:24.320Z,31.70
2019-02-02T09:25:53.890Z,32.00
2019-02-02T09:28:23.376Z,30.82
2019-02-02T09:30:54.100Z,30.68
2019-02-02T09:33:23.664Z,31.42
2019-02-02T09:35:53.182Z,43.20
2019-02-02T09:38:22.675Z,33.10
2019-02-02T09:40:53.608Z,31.65
2019-02-02T09:43:23.027Z,30.68
2019-02-02T09:45:53.867Z,29.63
2019-02-02T09:48:23.298Z,31.45
2019-02-02T09:50:52.784Z,30.80
2019-02-02T09:53:22.319Z,30.30
2019-02-02T09:55:54.516Z,34.18
2019-02-02T09:58:24.045Z,32.75
2019-02-02T10:00:54.930Z,32.85
2019-02-02T10:03:24.461Z,35.90
2019-02-02T10:05:55.362Z,35.55
2019-02-02T10:08:24.888Z,36.15
2019-02-02T10:10:54.377Z,34.10
2019-02-02T10:13:23.895Z,36.63
2019-02-02T10:15:54.595Z,33.28
2019-02-02T10:18:24.048Z,31.93
2019-02-02T10:21:03.644Z,29.85
2019-02-02T10:23:25.975Z,30.60
2019-02-02T10:25:55.459Z,29.23
2019-02-02T10:28:24.979Z,30.08
2019-02-02T10:30:55.863Z,40.50
2019-02-02T10:33:25.320Z,32.63
2019-02-02T10:35:56.104Z,34.67
2019-02-02T10:38:25.556Z,34.83
2019-02-02T10:40:56.351Z,32.83
2019-02-02T10:43:25.805Z,32.43
2019-02-02T10:45:56.488Z,32.80
2019-02-02T10:48:26.011Z,33.00
2019-02-02T10:50:55.576Z,32.63
2019-02-02T10:53:25.023Z,31.63
2019-02-02T10:55:56.210Z,33.20
2019-02-02T10:58:25.729Z,34.63
2019-02-02T11:00:55.202Z,32.63
2019-02-02T11:03:24.721Z,35.80
2019-02-02T11:05:54.331Z,34.60
2019-02-02T11:08:23.911Z,32.93
2019-02-02T11:10:54.740Z,34.10
2019-02-02T11:13:24.504Z,33.90
2019-02-02T11:15:53.928Z,32.27
2019-02-02T11:18:23.465Z,32.43
2019-02-02T11:20:57.331Z,32.70
2019-02-02T11:23:26.779Z,36.17
2019-02-02T11:25:56.442Z,31.63
2019-02-02T11:28:26.181Z,29.60
2019-02-02T11:30:56.982Z,27.50
2019-02-02T11:33:26.456Z,26.07
2019-02-02T11:35:55.960Z,25.57
2019-02-02T11:38:25.342Z,24.80
2019-02-02T11:40:56.168Z,25.07
2019-02-02T11:43:25.581Z,25.10
2019-02-02T11:45:55.091Z,26.13
2019-02-02T11:48:24.575Z,26.60
2019-02-02T11:50:54.112Z,27.53
2019-02-02T11:53:23.514Z,28.40
2019-02-02T11:55:53.101Z,27.90
2019-02-02T11:58:22.514Z,28.17
2019-02-02T12:00:52.040Z,28.97
2019-02-02T12:03:21.459Z,29.33
2019-02-02T12:05:52.323Z,29.00
2019-02-02T12:08:21.737Z,28.70
2019-02-02T12:10:52.451Z,28.33
2019-02-02T12:13:21.935Z,27.00
2019-02-02T12:15:52.799Z,27.93
2019-02-02T12:18:22.509Z,26.23
2019-02-02T12:20:53.349Z,27.53
2019-02-02T12:23:22.752Z,27.73
2019-02-02T12:25:54.579Z,30.00
2019-02-02T12:28:23.990Z,28.47
2019-02-02T12:30:53.502Z,26.97
2019-02-02T12:33:25.830Z,26.13
2019-02-02T12:35:55.455Z,25.73
2019-02-02T12:38:24.860Z,26.03
2019-02-02T12:40:54.389Z,25.03
2019-02-02T12:43:23.884Z,26.50
2019-02-02T12:45:53.386Z,25.40
2019-02-02T12:48:22.909Z,24.77
2019-02-02T12:50:53.726Z,23.30
2019-02-02T12:53:23.206Z,21.80
2019-02-02T12:55:54.032Z,22.00
2019-02-02T12:58:23.451Z,20.20
2019-02-02T13:00:54.343Z,20.43
2019-02-02T13:03:24.738Z,19.37
2019-02-02T13:05:55.458Z,19.83
2019-02-02T13:08:24.871Z,21.20
2019-02-02T13:10:54.386Z,20.97
2019-02-02T13:13:23.800Z,19.77
2019-02-02T13:15:54.750Z,20.03
2019-02-02T13:18:24.155Z,17.73
2019-02-02T13:20:54.973Z,18.50
2019-02-02T13:23:24.386Z,17.60
2019-02-02T13:26:04.550Z,17.80
2019-02-02T13:28:24.861Z,19.93
2019-02-02T13:30:54.341Z,19.60
2019-02-02T13:33:23.894Z,20.70
2019-02-02T13:35:53.379Z,22.80
2019-02-02T13:38:22.898Z,28.47
2019-02-02T13:40:52.391Z,25.77
2019-02-02T13:43:21.910Z,25.97
2019-02-02T13:45:52.795Z,28.37
2019-02-02T13:48:22.252Z,23.20
2019-02-02T13:50:52.928Z,25.13
2019-02-02T13:53:22.400Z,25.03
2019-02-02T13:55:51.807Z,21.93
2019-02-02T13:58:21.410Z,24.37
2019-02-02T14:00:50.965Z,32.60
2019-02-02T14:03:20.474Z,26.67
2019-02-02T14:05:51.260Z,25.90
2019-02-02T14:08:20.700Z,26.37
2019-02-02T14:10:51.386Z,23.53
2019-02-02T14:13:20.897Z,25.23
2019-02-02T14:15:51.788Z,22.90
2019-02-02T14:18:21.312Z,21.97
2019-02-02T14:20:51.990Z,22.40
2019-02-02T14:23:21.505Z,22.77
2019-02-02T14:25:50.986Z,22.90
2019-02-02T14:28:28.060Z,19.33
2019-02-02T14:30:53.724Z,21.37
2019-02-02T14:33:23.411Z,21.93
2019-02-02T14:35:54.101Z,21.77
2019-02-02T14:38:23.583Z,21.90
2019-02-02T14:40:54.268Z,20.77
2019-02-02T14:43:23.791Z,20.40
2019-02-02T14:45:54.511Z,22.73
2019-02-02T14:48:23.918Z,24.70
2019-02-02T14:50:53.514Z,29.60
2019-02-02T14:53:22.932Z,27.20
2019-02-02T14:55:53.964Z,25.50
2019-02-02T14:58:23.587Z,28.23
2019-02-02T15:00:53.985Z,30.43
2019-02-02T15:03:25.720Z,30.87
2019-02-02T15:05:56.055Z,30.93
2019-02-02T15:08:25.546Z,39.07
2019-02-02T15:10:54.991Z,30.57
2019-02-02T15:13:24.472Z,28.80
2019-02-02T15:15:55.292Z,30.93
2019-02-02T15:18:24.723Z,36.83
2019-02-02T15:20:54.238Z,36.93
2019-02-02T15:23:23.722Z,36.83
2019-02-02T15:25:53.292Z,37.77
2019-02-02T15:28:22.744Z,32.73
2019-02-02T15:30:53.751Z,30.57
2019-02-02T15:33:23.239Z,29.27
2019-02-02T15:35:52.762Z,26.60
2019-02-02T15:38:22.248Z,29.07
2019-02-02T15:40:58.810Z,34.83
2019-02-02T15:43:22.851Z,33.50
2019-02-02T15:45:53.515Z,32.13
2019-02-02T15:48:23.101Z,29.23
2019-02-02T15:50:54.017Z,33.07
2019-02-02T15:53:23.531Z,27.23
2019-02-02T15:55:54.458Z,30.70
2019-02-02T15:58:23.871Z,28.97
2019-02-02T16:00:54.701Z,29.33
2019-02-02T16:03:24.184Z,34.30
2019-02-02T16:05:53.671Z,29.37
2019-02-02T16:08:23.121Z,28.23
2019-02-02T16:10:53.802Z,26.83
2019-02-02T16:13:23.251Z,26.60
2019-02-02T16:15:52.737Z,26.43
2019-02-02T16:18:22.248Z,26.50
2019-02-02T16:20:53.247Z,33.83
2019-02-02T16:23:22.774Z,28.20
2019-02-02T16:25:53.463Z,28.20
2019-02-02T16:28:22.976Z,30.07
2019-02-02T16:30:52.540Z,28.10
2019-02-02T16:33:22.144Z,29.10
2019-02-02T16:35:52.839Z,27.97
2019-02-02T16:38:22.352Z,41.70
2019-02-02T16:40:51.770Z,45.27
2019-02-02T16:43:21.289Z,39.13
2019-02-02T16:45:52.135Z,38.60
2019-02-02T16:48:21.529Z,41.43
2019-02-02T16:50:51.094Z,33.87
2019-02-02T16:53:21.908Z,29.50
2019-02-02T16:55:52.865Z,30.87
2019-02-02T16:58:22.380Z,31.30
2019-02-02T17:00:51.855Z,46.80
2019-02-02T17:03:21.375Z,42.40
2019-02-02T17:05:52.296Z,41.83
2019-02-02T17:08:21.771Z,46.30
2019-02-02T17:10:51.356Z,45.33
2019-02-02T17:13:20.799Z,59.73
2019-02-02T17:15:50.275Z,55.90
2019-02-02T17:18:19.719Z,46.63
2019-02-02T17:20:50.511Z,57.47
2019-02-02T17:23:19.975Z,49.97
2019-02-02T17:25:50.762Z,54.70
2019-02-02T17:28:20.202Z,41.93
2019-02-02T17:30:50.983Z,49.47
2019-02-02T17:33:20.424Z,53.77
2019-02-02T17:35:49.911Z,41.83
2019-02-02T17:38:19.355Z,52.50
2019-02-02T17:40:48.834Z,41.93
2019-02-02T17:43:18.356Z,45.67
2019-02-02T17:45:47.906Z,41.23
2019-02-02T17:48:17.428Z,51.43
2019-02-02T17:50:46.908Z,45.47
2019-02-02T17:53:16.346Z,53.03
2019-02-02T17:55:45.828Z,37.93
2019-02-02T17:58:15.338Z,36.97
2019-02-02T18:00:48.267Z,33.93
2019-02-02T18:03:19.068Z,38.70
2019-02-02T18:05:48.627Z,41.30
2019-02-02T18:08:18.128Z,34.80
2019-02-02T18:10:49.169Z,43.10
2019-02-02T18:13:18.691Z,35.80
2019-02-02T18:15:49.379Z,38.00
2019-02-02T18:18:19.409Z,37.53
2019-02-02T18:20:50.190Z,35.20
2019-02-02T18:23:19.645Z,37.43
2019-02-02T18:25:49.165Z,35.40
2019-02-02T18:28:18.767Z,35.40
2019-02-02T18:30:48.231Z,41.80
2019-02-02T18:33:17.643Z,49.87
2019-02-02T18:35:47.166Z,50.43
2019-02-02T18:38:16.653Z,40.73
2019-02-02T18:40:47.619Z,35.90
2019-02-02T18:43:17.052Z,58.07
2019-02-02T18:45:46.531Z,65.43
2019-02-02T18:48:16.019Z,58.73
2019-02-02T18:50:46.915Z,52.60
2019-02-02T18:53:16.404Z,54.25
2019-02-02T18:55:49.548Z,54.73
2019-02-02T18:58:19.053Z,47.45
2019-02-02T19:00:49.999Z,52.75
2019-02-02T19:03:19.570Z,57.20
2019-02-02T19:05:49.095Z,60.98
2019-02-02T19:08:18.532Z,46.33
2019-02-02T19:10:49.445Z,61.23
2019-02-02T19:13:18.847Z,45.80
2019-02-02T19:15:49.570Z,61.95
2019-02-02T19:18:19.066Z,62.23
2019-02-02T19:20:49.786Z,48.10
2019-02-02T19:23:25.449Z,57.25
2019-02-02T19:25:50.350Z,65.78
2019-02-02T19:28:19.798Z,67.12
2019-02-02T19:30:53.448Z,59.30
2019-02-02T19:33:21.908Z,58.00
2019-02-02T19:35:52.842Z,63.45
2019-02-02T19:38:22.262Z,60.30
2019-02-02T19:40:53.100Z,58.05
2019-02-02T19:43:22.538Z,62.67
2019-02-02T19:45:53.680Z,54.45
2019-02-02T19:48:23.191Z,55.67
2019-02-02T19:50:52.720Z,51.35
2019-02-02T19:53:22.164Z,48.15
2019-02-02T19:55:52.871Z,42.40
2019-02-02T19:58:22.295Z,47.10
2019-02-02T20:00:51.815Z,45.45
2019-02-02T20:03:21.228Z,40.10
2019-02-02T20:05:52.302Z,38.48
2019-02-02T20:08:21.723Z,36.35
2019-02-02T20:10:52.547Z,36.73
2019-02-02T20:13:22.008Z,44.63
2019-02-02T20:15:51.502Z,40.57
2019-02-02T20:18:20.960Z,43.20
2019-02-02T20:20:50.452Z,49.38
2019-02-02T20:23:19.911Z,47.00
2019-02-02T20:25:50.803Z,45.60
2019-02-02T20:28:20.260Z,43.78
2019-02-02T20:30:51.042Z,46.63
2019-02-02T20:33:20.547Z,50.00
2019-02-02T20:35:50.000Z,48.77
2019-02-02T20:38:19.462Z,44.90
2019-02-02T20:40:50.255Z,43.73
2019-02-02T20:43:19.786Z,40.28
2019-02-02T20:45:50.683Z,39.77
2019-02-02T20:48:20.139Z,40.15
2019-02-02T20:50:50.927Z,37.67
2019-02-02T20:53:20.479Z,35.73
2019-02-02T20:55:51.166Z,43.55
2019-02-02T20:58:20.623Z,41.00
2019-02-02T21:00:51.510Z,37.03
2019-02-02T21:03:21.034Z,38.45
2019-02-02T21:05:52.394Z,41.28
2019-02-02T21:08:21.703Z,40.10
2019-02-02T21:10:52.394Z,33.63
2019-02-02T21:13:21.923Z,32.53
2019-02-02T21:15:52.704Z,33.23
2019-02-02T21:18:22.222Z,36.55
2019-02-02T21:20:51.706Z,37.85
2019-02-02T21:23:21.155Z,34.80
2019-02-02T21:25:51.853Z,35.68
2019-02-02T21:28:21.371Z,36.75
2019-02-02T21:30:51.278Z,38.10
2019-02-02T21:33:20.740Z,39.58
2019-02-02T21:35:50.174Z,39.03
2019-02-02T21:38:19.661Z,37.20
2019-02-02T21:40:50.485Z,36.13
2019-02-02T21:43:20.375Z,37.50
2019-02-02T21:45:49.883Z,37.00
2019-02-02T21:48:19.304Z,36.42
2019-02-02T21:50:50.153Z,38.65
2019-02-02T21:53:19.628Z,40.60
2019-02-02T21:55:49.149Z,38.80
2019-02-02T21:58:18.658Z,36.47
2019-02-02T22:00:49.385Z,36.27
2019-02-02T22:03:18.872Z,36.27
2019-02-02T22:05:48.402Z,36.87
2019-02-02T22:08:17.886Z,35.08
2019-02-02T22:10:48.607Z,34.60
2019-02-02T22:13:18.106Z,46.23
2019-02-02T22:15:47.628Z,44.43
2019-02-02T22:18:17.160Z,39.70
2019-02-02T22:20:48.084Z,39.20
2019-02-02T22:23:17.507Z,53.70
2019-02-02T22:25:47.765Z,48.80
2019-02-02T22:28:17.191Z,39.43
2019-02-02T22:30:47.910Z,76.70
2019-02-02T22:33:17.441Z,57.20
2019-02-02T22:35:48.330Z,43.20
2019-02-02T22:38:17.747Z,46.90
2019-02-02T22:40:47.282Z,45.95
2019-02-02T22:43:16.698Z,46.70
2019-02-02T22:45:46.151Z,48.80
2019-02-02T22:48:15.861Z,41.88
2019-02-02T22:50:46.583Z,43.13
2019-02-02T22:53:16.668Z,39.53
2019-02-02T22:55:47.587Z,37.40
2019-02-02T22:58:17.075Z,37.73
2019-02-02T23:01:08.398Z,43.90
2019-02-02T23:03:47.145Z,44.50
2019-02-02T23:06:42.360Z,42.23
2019-02-02T23:09:31.499Z,33.48
2019-02-02T23:12:11.491Z,31.77
2019-02-02T23:15:09.984Z,34.18
2019-02-02T23:17:41.305Z,31.77
2019-02-02T23:20:10.781Z,31.77
2019-02-02T23:22:42.111Z,30.17
2019-02-02T23:25:11.601Z,30.47
2019-02-02T23:27:42.595Z,33.90
2019-02-02T23:30:16.243Z,31.37
2019-02-02T23:32:47.266Z,31.53
2019-02-02T23:35:16.746Z,33.00
2019-02-02T23:37:47.660Z,32.80
2019-02-02T23:40:17.090Z,31.68
2019-02-02T23:42:48.298Z,30.97
2019-02-02T23:45:19.265Z,29.23
2019-02-02T23:47:50.079Z,29.80
2019-02-02T23:50:19.568Z,31.93
2019-02-02T23:52:50.787Z,31.20
2019-02-02T23:55:20.496Z,32.00
2019-02-02T23:57:51.227Z,32.55
